sensor_id;sensor_type;location;lat;lon;timestamp;pressure;altitude;pressure_sealevel;temperature;humidity
34961;BME280;30789;52.030;7.110;2024-01-16T00:01:45;99943.06;;;-0.06;100.00
34961;BME280;30789;52.030;7.110;2024-01-16T00:04:11;99954.75;;;0.07;100.00
34961;BME280;30789;52.030;7.110;2024-01-16T00:06:39;99944.72;;;0.07;100.00
34961;BME280;30789;52.030;7.110;2024-01-16T00:09:07;99955.44;;;0.03;100.00
34961;BME280;30789;52.030;7.110;2024-01-16T00:11:39;99953.53;;;0.04;100.00
34961;BME280;30789;52.030;7.110;2024-01-16T00:14:06;99949.56;;;0.02;100.00
34961;BME280;30789;52.030;7.110;2024-01-16T00:16:32;99941.13;;;0.03;100.00
34961;BME280;30789;52.030;7.110;2024-01-16T00:18:59;99941.22;;;0.07;100.00
34961;BME280;30789;52.030;7.110;2024-01-16T00:21:26;99943.50;;;0.05;100.00
34961;BME280;30789;52.030;7.110;2024-01-16T00:23:52;99950.69;;;0.00;100.00
34961;BME280;30789;52.030;7.110;2024-01-16T00:26:21;99947.59;;;-0.10;100.00
34961;BME280;30789;52.030;7.110;2024-01-16T00:28:47;99955.03;;;-0.07;100.00
34961;BME280;30789;52.030;7.110;2024-01-16T00:31:14;99957.94;;;-0.12;100.00
34961;BME280;30789;52.030;7.110;2024-01-16T00:33:40;99955.91;;;-0.15;100.00
34961;BME280;30789;52.030;7.110;2024-01-16T00:36:08;99968.19;;;-0.18;100.00
34961;BME280;30789;52.030;7.110;2024-01-16T00:38:34;99972.81;;;-0.18;100.00
34961;BME280;30789;52.030;7.110;2024-01-16T00:41:01;99969.34;;;-0.19;100.00
34961;BME280;30789;52.030;7.110;2024-01-16T00:43:29;99967.69;;;-0.11;100.00
34961;BME280;30789;52.030;7.110;2024-01-16T00:45:55;99969.72;;;-0.08;100.00
34961;BME280;30789;52.030;7.110;2024-01-16T00:48:22;99972.03;;;-0.19;100.00
34961;BME280;30789;52.030;7.110;2024-01-16T00:50:49;99976.50;;;-0.23;100.00
34961;BME280;30789;52.030;7.110;2024-01-16T00:53:15;99978.13;;;-0.22;100.00
34961;BME280;30789;52.030;7.110;2024-01-16T00:55:42;99989.06;;;-0.18;100.00
34961;BME280;30789;52.030;7.110;2024-01-16T00:58:09;100002.94;;;-0.20;100.00
34961;BME280;30789;52.030;7.110;2024-01-16T01:00:37;99999.69;;;-0.13;100.00
34961;BME280;30789;52.030;7.110;2024-01-16T01:03:03;99992.72;;;-0.14;100.00
34961;BME280;30789;52.030;7.110;2024-01-16T01:05:30;99996.91;;;-0.05;100.00
34961;BME280;30789;52.030;7.110;2024-01-16T01:07:57;100001.88;;;-0.07;100.00
34961;BME280;30789;52.030;7.110;2024-01-16T01:10:24;99994.63;;;-0.15;100.00
34961;BME280;30789;52.030;7.110;2024-01-16T01:12:51;100002.94;;;-0.20;100.00
34961;BME280;30789;52.030;7.110;2024-01-16T01:15:19;100005.19;;;-0.22;100.00
34961;BME280;30789;52.030;7.110;2024-01-16T01:17:48;100002.41;;;-0.13;100.00
34961;BME280;30789;52.030;7.110;2024-01-16T01:20:15;100020.16;;;-0.24;100.00
34961;BME280;30789;52.030;7.110;2024-01-16T01:22:41;100020.31;;;-0.21;100.00
34961;BME280;30789;52.030;7.110;2024-01-16T01:25:08;100012.19;;;-0.21;100.00
34961;BME280;30789;52.030;7.110;2024-01-16T01:27:35;100010.72;;;-0.18;100.00
34961;BME280;30789;52.030;7.110;2024-01-16T01:30:02;100003.59;;;-0.23;100.00
34961;BME280;30789;52.030;7.110;2024-01-16T01:32:29;100012.22;;;-0.29;100.00
34961;BME280;30789;52.030;7.110;2024-01-16T01:34:57;99999.81;;;-0.30;100.00
34961;BME280;30789;52.030;7.110;2024-01-16T01:37:24;99995.53;;;-0.31;100.00
34961;BME280;30789;52.030;7.110;2024-01-16T01:39:51;100011.13;;;-0.28;100.00
34961;BME280;30789;52.030;7.110;2024-01-16T01:42:17;100012.16;;;-0.41;100.00
34961;BME280;30789;52.030;7.110;2024-01-16T01:44:44;100018.63;;;-0.34;100.00
34961;BME280;30789;52.030;7.110;2024-01-16T01:47:10;100015.31;;;-0.39;100.00
34961;BME280;30789;52.030;7.110;2024-01-16T01:49:37;100015.00;;;-0.38;100.00
34961;BME280;30789;52.030;7.110;2024-01-16T01:52:06;100013.44;;;-0.39;100.00
34961;BME280;30789;52.030;7.110;2024-01-16T01:54:35;100014.25;;;-0.47;100.00
34961;BME280;30789;52.030;7.110;2024-01-16T01:57:03;100013.94;;;-0.45;100.00
34961;BME280;30789;52.030;7.110;2024-01-16T01:59:30;100027.28;;;-0.40;100.00
34961;BME280;30789;52.030;7.110;2024-01-16T02:01:57;100020.34;;;-0.50;100.00
34961;BME280;30789;52.030;7.110;2024-01-16T02:04:26;100019.66;;;-0.47;100.00
34961;BME280;30789;52.030;7.110;2024-01-16T02:06:53;100023.94;;;-0.46;100.00
34961;BME280;30789;52.030;7.110;2024-01-16T02:09:23;100023.63;;;-0.44;100.00
34961;BME280;30789;52.030;7.110;2024-01-16T02:11:50;100028.06;;;-0.40;100.00
34961;BME280;30789;52.030;7.110;2024-01-16T02:14:16;100031.25;;;-0.38;100.00
34961;BME280;30789;52.030;7.110;2024-01-16T02:16:43;100025.91;;;-0.26;100.00
34961;BME280;30789;52.030;7.110;2024-01-16T02:19:10;100038.22;;;-0.37;100.00
34961;BME280;30789;52.030;7.110;2024-01-16T02:21:39;100036.31;;;-0.36;100.00
34961;BME280;30789;52.030;7.110;2024-01-16T02:24:08;100036.13;;;-0.31;100.00
34961;BME280;30789;52.030;7.110;2024-01-16T02:26:36;100030.72;;;-0.31;100.00
34961;BME280;30789;52.030;7.110;2024-01-16T02:29:03;100037.13;;;-0.36;100.00
34961;BME280;30789;52.030;7.110;2024-01-16T02:31:29;100033.44;;;-0.31;100.00
34961;BME280;30789;52.030;7.110;2024-01-16T02:33:56;100021.22;;;-0.37;100.00
34961;BME280;30789;52.030;7.110;2024-01-16T02:36:23;100034.59;;;-0.41;100.00
34961;BME280;30789;52.030;7.110;2024-01-16T02:38:49;100027.47;;;-0.45;100.00
34961;BME280;30789;52.030;7.110;2024-01-16T02:41:17;100035.25;;;-0.44;100.00
34961;BME280;30789;52.030;7.110;2024-01-16T02:43:45;100024.03;;;-0.54;100.00
34961;BME280;30789;52.030;7.110;2024-01-16T02:46:12;100023.63;;;-0.44;100.00
34961;BME280;30789;52.030;7.110;2024-01-16T02:48:38;100022.88;;;-0.53;100.00
34961;BME280;30789;52.030;7.110;2024-01-16T02:51:05;100025.59;;;-0.53;100.00
34961;BME280;30789;52.030;7.110;2024-01-16T02:53:32;100024.66;;;-0.57;100.00
34961;BME280;30789;52.030;7.110;2024-01-16T02:55:58;100030.34;;;-0.50;100.00
34961;BME280;30789;52.030;7.110;2024-01-16T02:58:26;100014.91;;;-0.50;100.00
34961;BME280;30789;52.030;7.110;2024-01-16T03:00:53;100028.59;;;-0.46;100.00
34961;BME280;30789;52.030;7.110;2024-01-16T03:03:19;100025.09;;;-0.47;100.00
34961;BME280;30789;52.030;7.110;2024-01-16T03:05:46;100034.19;;;-0.51;100.00
34961;BME280;30789;52.030;7.110;2024-01-16T03:08:13;100035.31;;;-0.52;100.00
34961;BME280;30789;52.030;7.110;2024-01-16T03:10:40;100038.47;;;-0.50;100.00
34961;BME280;30789;52.030;7.110;2024-01-16T03:13:06;100038.13;;;-0.49;100.00
34961;BME280;30789;52.030;7.110;2024-01-16T03:15:34;100035.06;;;-0.39;100.00
34961;BME280;30789;52.030;7.110;2024-01-16T03:18:01;100035.41;;;-0.40;100.00
34961;BME280;30789;52.030;7.110;2024-01-16T03:20:28;100022.97;;;-0.41;100.00
34961;BME280;30789;52.030;7.110;2024-01-16T03:22:55;100032.06;;;-0.46;100.00
34961;BME280;30789;52.030;7.110;2024-01-16T03:25:21;100041.59;;;-0.40;100.00
34961;BME280;30789;52.030;7.110;2024-01-16T03:27:48;100034.78;;;-0.46;100.00
34961;BME280;30789;52.030;7.110;2024-01-16T03:30:14;100031.09;;;-0.41;100.00
34961;BME280;30789;52.030;7.110;2024-01-16T03:32:43;100035.84;;;-0.38;100.00
34961;BME280;30789;52.030;7.110;2024-01-16T03:35:09;100036.91;;;-0.31;100.00
34961;BME280;30789;52.030;7.110;2024-01-16T03:37:38;100030.59;;;-0.35;100.00
34961;BME280;30789;52.030;7.110;2024-01-16T03:40:05;100029.34;;;-0.37;100.00
34961;BME280;30789;52.030;7.110;2024-01-16T03:42:32;100024.50;;;-0.32;100.00
34961;BME280;30789;52.030;7.110;2024-01-16T03:44:59;100010.25;;;-0.41;100.00
34961;BME280;30789;52.030;7.110;2024-01-16T03:47:25;100023.94;;;-0.46;100.00
34961;BME280;30789;52.030;7.110;2024-01-16T03:49:53;100021.72;;;-0.44;100.00
34961;BME280;30789;52.030;7.110;2024-01-16T03:52:20;100023.63;;;-0.44;100.00
34961;BME280;30789;52.030;7.110;2024-01-16T03:54:46;100021.72;;;-0.44;100.00
34961;BME280;30789;52.030;7.110;2024-01-16T03:57:13;100024.91;;;-0.42;100.00
34961;BME280;30789;52.030;7.110;2024-01-16T03:59:40;100026.16;;;-0.39;100.00
34961;BME280;30789;52.030;7.110;2024-01-16T04:02:06;100037.31;;;-0.41;100.00
34961;BME280;30789;52.030;7.110;2024-01-16T04:04:33;100037.63;;;-0.42;100.00
34961;BME280;30789;52.030;7.110;2024-01-16T04:07:01;100031.75;;;-0.44;100.00
34961;BME280;30789;52.030;7.110;2024-01-16T04:09:27;100037.31;;;-0.41;100.00
34961;BME280;30789;52.030;7.110;2024-01-16T04:11:54;100036.97;;;-0.39;100.00
34961;BME280;30789;52.030;7.110;2024-01-16T04:14:20;100032.38;;;-0.39;100.00
34961;BME280;30789;52.030;7.110;2024-01-16T04:16:47;100036.31;;;-0.36;100.00
34961;BME280;30789;52.030;7.110;2024-01-16T04:19:13;100033.63;;;-0.36;100.00
34961;BME280;30789;52.030;7.110;2024-01-16T04:21:40;100038.03;;;-0.32;100.00
34961;BME280;30789;52.030;7.110;2024-01-16T04:24:08;100037.06;;;-0.27;100.00
34961;BME280;30789;52.030;7.110;2024-01-16T04:26:35;100027.09;;;-0.15;100.00
34961;BME280;30789;52.030;7.110;2024-01-16T04:29:02;100041.66;;;-0.28;100.00
34961;BME280;30789;52.030;7.110;2024-01-16T04:31:29;100034.97;;;-0.22;100.00
34961;BME280;30789;52.030;7.110;2024-01-16T04:33:56;100033.69;;;-0.24;100.00
34961;BME280;30789;52.030;7.110;2024-01-16T04:36:23;100030.31;;;-0.21;100.00
34961;BME280;30789;52.030;7.110;2024-01-16T04:38:49;100033.19;;;-0.18;100.00
34961;BME280;30789;52.030;7.110;2024-01-16T04:41:19;100037.06;;;-0.27;100.00
34961;BME280;30789;52.030;7.110;2024-01-16T04:43:45;100033.19;;;-0.18;100.00
34961;BME280;30789;52.030;7.110;2024-01-16T04:46:14;100032.06;;;-0.17;100.00
34961;BME280;30789;52.030;7.110;2024-01-16T04:48:40;100036.56;;;-0.21;100.00
34961;BME280;30789;52.030;7.110;2024-01-16T04:51:07;100037.59;;;-0.13;100.00
34961;BME280;30789;52.030;7.110;2024-01-16T04:53:34;100033.84;;;-0.21;100.00
34961;BME280;30789;52.030;7.110;2024-01-16T04:56:01;100039.09;;;-0.24;100.00
34961;BME280;30789;52.030;7.110;2024-01-16T04:58:29;100037.94;;;-0.15;100.00
34961;BME280;30789;52.030;7.110;2024-01-16T05:00:56;100030.81;;;-0.19;100.00
34961;BME280;30789;52.030;7.110;2024-01-16T05:03:22;100035.16;;;-0.27;100.00
34961;BME280;30789;52.030;7.110;2024-01-16T05:05:49;100039.59;;;-0.22;100.00
34961;BME280;30789;52.030;7.110;2024-01-16T05:08:15;100031.78;;;-0.24;100.00
34961;BME280;30789;52.030;7.110;2024-01-16T05:10:42;100033.00;;;-0.13;100.00
34961;BME280;30789;52.030;7.110;2024-01-16T05:13:08;100029.09;;;-0.24;100.00
34961;BME280;30789;52.030;7.110;2024-01-16T05:15:40;100018.06;;;-0.19;100.00
34961;BME280;30789;52.030;7.110;2024-01-16T05:18:07;100017.06;;;-0.14;100.00
34961;BME280;30789;52.030;7.110;2024-01-16T05:20:35;100015.22;;;-0.22;100.00
34961;BME280;30789;52.030;7.110;2024-01-16T05:23:02;100015.94;;;-0.13;100.00
34961;BME280;30789;52.030;7.110;2024-01-16T05:25:28;100003.41;;;-0.18;100.00
34961;BME280;30789;52.030;7.110;2024-01-16T05:27:55;100010.38;;;-0.17;100.00
34961;BME280;30789;52.030;7.110;2024-01-16T05:30:21;100005.19;;;-0.22;100.00
34961;BME280;30789;52.030;7.110;2024-01-16T05:32:49;100011.66;;;-0.14;100.00
34961;BME280;30789;52.030;7.110;2024-01-16T05:35:17;100012.66;;;-0.19;100.00
34961;BME280;30789;52.030;7.110;2024-01-16T05:37:43;100010.97;;;-0.32;100.00
34961;BME280;30789;52.030;7.110;2024-01-16T05:40:10;100002.34;;;-0.25;100.00
34961;BME280;30789;52.030;7.110;2024-01-16T05:42:37;100006.75;;;-0.21;100.00
34961;BME280;30789;52.030;7.110;2024-01-16T05:45:05;100001.69;;;-0.22;100.00
34961;BME280;30789;52.030;7.110;2024-01-16T05:47:31;99995.94;;;-0.21;100.00
34961;BME280;30789;52.030;7.110;2024-01-16T05:49:59;100000.88;;;-0.23;100.00
34961;BME280;30789;52.030;7.110;2024-01-16T05:52:26;99988.81;;;-0.25;100.00
34961;BME280;30789;52.030;7.110;2024-01-16T05:54:52;100000.88;;;-0.23;100.00
34961;BME280;30789;52.030;7.110;2024-01-16T05:57:22;99992.72;;;-0.14;100.00
34961;BME280;30789;52.030;7.110;2024-01-16T05:59:49;99984.63;;;-0.23;100.00
34961;BME280;30789;52.030;7.110;2024-01-16T06:02:15;99989.38;;;-0.20;100.00
34961;BME280;30789;52.030;7.110;2024-01-16T06:04:42;99986.75;;;-0.28;100.00
34961;BME280;30789;52.030;7.110;2024-01-16T06:07:10;99994.81;;;-0.20;100.00
34961;BME280;30789;52.030;7.110;2024-01-16T06:09:38;99988.00;;;-0.26;100.00
34961;BME280;30789;52.030;7.110;2024-01-16T06:12:06;99998.84;;;-0.26;100.00
34961;BME280;30789;52.030;7.110;2024-01-16T06:14:33;99990.38;;;-0.24;100.00
34961;BME280;30789;52.030;7.110;2024-01-16T06:17:00;100000.94;;;-0.11;100.00
34961;BME280;30789;52.030;7.110;2024-01-16T06:19:28;99992.75;;;-0.23;100.00
34961;BME280;30789;52.030;7.110;2024-01-16T06:21:55;100001.03;;;-0.19;100.00
34961;BME280;30789;52.030;7.110;2024-01-16T06:24:23;99998.66;;;-0.21;100.00
34961;BME280;30789;52.030;7.110;2024-01-16T06:26:49;99994.41;;;-0.30;100.00
34961;BME280;30789;52.030;7.110;2024-01-16T06:29:16;99993.28;;;-0.29;100.00
34961;BME280;30789;52.030;7.110;2024-01-16T06:31:43;99989.84;;;-0.38;100.00
34961;BME280;30789;52.030;7.110;2024-01-16T06:34:09;99993.50;;;-0.34;100.00
34961;BME280;30789;52.030;7.110;2024-01-16T06:36:36;99983.31;;;-0.37;100.00
34961;BME280;30789;52.030;7.110;2024-01-16T06:39:02;99984.91;;;-0.36;100.00
34961;BME280;30789;52.030;7.110;2024-01-16T06:41:30;99977.75;;;-0.41;100.00
34961;BME280;30789;52.030;7.110;2024-01-16T06:43:57;99990.50;;;-0.41;100.00
34961;BME280;30789;52.030;7.110;2024-01-16T06:46:23;99993.81;;;-0.36;100.00
34961;BME280;30789;52.030;7.110;2024-01-16T06:48:50;99990.16;;;-0.40;100.00
34961;BME280;30789;52.030;7.110;2024-01-16T06:51:17;99998.28;;;-0.40;100.00
34961;BME280;30789;52.030;7.110;2024-01-16T06:53:43;100001.66;;;-0.43;100.00
34961;BME280;30789;52.030;7.110;2024-01-16T06:56:10;99997.50;;;-0.40;100.00
34961;BME280;30789;52.030;7.110;2024-01-16T06:58:38;100004.31;;;-0.34;100.00
34961;BME280;30789;52.030;7.110;2024-01-16T07:01:05;100010.25;;;-0.41;100.00
34961;BME280;30789;52.030;7.110;2024-01-16T07:03:34;100008.19;;;-0.44;100.00
34961;BME280;30789;52.030;7.110;2024-01-16T10:25:16;100043.72;;;0.05;98.05
34961;BME280;30789;52.030;7.110;2024-01-16T10:27:45;100045.53;;;-0.08;97.91
34961;BME280;30789;52.030;7.110;2024-01-16T10:30:13;100042.38;;;-0.10;97.66
34961;BME280;30789;52.030;7.110;2024-01-16T15:16:21;99889.53;;;0.56;81.61
34961;BME280;30789;52.030;7.110;2024-01-16T15:53:39;99869.59;;;-0.17;85.93
34961;BME280;30789;52.030;7.110;2024-01-16T15:56:14;99867.69;;;-0.16;86.25
34961;BME280;30789;52.030;7.110;2024-01-16T16:29:14;99880.59;;;-0.54;87.57
34961;BME280;30789;52.030;7.110;2024-01-16T16:31:41;99887.13;;;-0.55;87.36
34961;BME280;30789;52.030;7.110;2024-01-16T16:34:10;99891.13;;;-0.61;87.73
34961;BME280;30789;52.030;7.110;2024-01-16T16:36:39;99893.84;;;-0.61;87.68
34961;BME280;30789;52.030;7.110;2024-01-16T16:39:07;99895.97;;;-0.67;88.39
34961;BME280;30789;52.030;7.110;2024-01-16T16:41:34;99889.41;;;-0.66;88.41
34961;BME280;30789;52.030;7.110;2024-01-16T16:44:06;99889.16;;;-0.73;88.42
34961;BME280;30789;52.030;7.110;2024-01-16T16:46:34;99899.19;;;-0.73;88.27
34961;BME280;30789;52.030;7.110;2024-01-16T16:49:01;99898.94;;;-0.80;88.09
34961;BME280;30789;52.030;7.110;2024-01-16T16:51:28;99907.97;;;-0.76;88.32
34961;BME280;30789;52.030;7.110;2024-01-16T16:53:55;99903.69;;;-0.77;88.63
34961;BME280;30789;52.030;7.110;2024-01-16T16:56:23;99904.16;;;-0.75;88.67
34961;BME280;30789;52.030;7.110;2024-01-16T16:58:52;99901.16;;;-0.82;88.17
34961;BME280;30789;52.030;7.110;2024-01-16T17:01:20;99894.31;;;-0.80;88.40
34961;BME280;30789;52.030;7.110;2024-01-16T17:03:48;99901.97;;;-0.82;87.86
34961;BME280;30789;52.030;7.110;2024-01-16T17:06:19;99900.69;;;-0.84;87.79
34961;BME280;30789;52.030;7.110;2024-01-16T17:08:49;99905.97;;;-0.88;87.72
34961;BME280;30789;52.030;7.110;2024-01-16T17:11:15;99903.13;;;-0.91;87.96
34961;BME280;30789;52.030;7.110;2024-01-16T17:13:42;99896.47;;;-0.94;88.25
34961;BME280;30789;52.030;7.110;2024-01-16T17:16:17;99896.66;;;-0.99;88.52
34961;BME280;30789;52.030;7.110;2024-01-16T17:18:49;99899.94;;;-0.93;88.20
34961;BME280;30789;52.030;7.110;2024-01-16T17:21:18;99894.44;;;-0.97;87.98
34961;BME280;30789;52.030;7.110;2024-01-16T17:23:44;99892.16;;;-0.95;88.03
34961;BME280;30789;52.030;7.110;2024-01-16T17:26:11;99892.81;;;-0.98;87.92
34961;BME280;30789;52.030;7.110;2024-01-16T17:28:42;99880.75;;;-1.00;88.07
34961;BME280;30789;52.030;7.110;2024-01-16T17:31:08;99879.78;;;-0.96;87.44
34961;BME280;30789;52.030;7.110;2024-01-16T17:33:35;99868.97;;;-0.96;87.32
34961;BME280;30789;52.030;7.110;2024-01-16T17:36:03;99875.09;;;-1.07;87.72
34961;BME280;30789;52.030;7.110;2024-01-16T17:38:36;99868.56;;;-1.06;87.56
34961;BME280;30789;52.030;7.110;2024-01-16T17:41:02;99870.19;;;-1.14;87.63
34961;BME280;30789;52.030;7.110;2024-01-16T17:43:30;99861.09;;;-1.09;87.49
34961;BME280;30789;52.030;7.110;2024-01-16T17:45:56;99854.41;;;-1.12;87.53
34961;BME280;30789;52.030;7.110;2024-01-16T17:48:24;99852.19;;;-1.10;87.36
34961;BME280;30789;52.030;7.110;2024-01-16T17:50:51;99849.06;;;-1.20;87.65
34961;BME280;30789;52.030;7.110;2024-01-16T17:53:19;99842.53;;;-1.19;87.46
34961;BME280;30789;52.030;7.110;2024-01-16T17:55:46;99844.56;;;-1.16;87.41
34961;BME280;30789;52.030;7.110;2024-01-16T17:58:13;99849.22;;;-1.17;87.40
34961;BME280;30789;52.030;7.110;2024-01-16T18:00:41;99843.94;;;-1.13;86.56
34961;BME280;30789;52.030;7.110;2024-01-16T18:03:07;99840.97;;;-1.20;86.87
34961;BME280;30789;52.030;7.110;2024-01-16T18:05:37;99833.00;;;-1.17;86.77
34961;BME280;30789;52.030;7.110;2024-01-16T18:08:04;99836.53;;;-1.25;86.70
34961;BME280;30789;52.030;7.110;2024-01-16T18:10:35;99828.09;;;-1.23;86.43
34961;BME280;30789;52.030;7.110;2024-01-16T18:13:01;99836.69;;;-1.21;85.87
34961;BME280;30789;52.030;7.110;2024-01-16T18:15:28;99837.13;;;-1.19;86.00
34961;BME280;30789;52.030;7.110;2024-01-16T18:17:56;99840.81;;;-1.24;85.95
34961;BME280;30789;52.030;7.110;2024-01-16T18:20:25;99832.91;;;-1.29;86.14
34961;BME280;30789;52.030;7.110;2024-01-16T18:22:58;99833.50;;;-1.23;85.67
34961;BME280;30789;52.030;7.110;2024-01-16T18:25:25;99841.03;;;-1.29;85.20
34961;BME280;30789;52.030;7.110;2024-01-16T18:27:53;99831.63;;;-1.31;85.81
34961;BME280;30789;52.030;7.110;2024-01-16T18:30:22;99844.97;;;-1.26;85.58
34961;BME280;30789;52.030;7.110;2024-01-16T18:32:52;99842.13;;;-1.30;85.42
34961;BME280;30789;52.030;7.110;2024-01-16T18:35:19;99830.25;;;-1.37;85.83
34961;BME280;30789;52.030;7.110;2024-01-16T18:37:46;99829.31;;;-1.41;86.21
34961;BME280;30789;52.030;7.110;2024-01-16T18:40:14;99825.66;;;-1.45;86.17
34961;BME280;30789;52.030;7.110;2024-01-16T18:42:43;99827.06;;;-1.39;86.21
34961;BME280;30789;52.030;7.110;2024-01-16T18:45:11;99819.25;;;-1.32;84.77
34961;BME280;30789;52.030;7.110;2024-01-16T18:47:39;99822.53;;;-1.27;85.29
34961;BME280;30789;52.030;7.110;2024-01-16T18:50:07;99819.91;;;-1.35;85.42
34961;BME280;30789;52.030;7.110;2024-01-16T18:52:36;99807.19;;;-1.35;85.05
34961;BME280;30789;52.030;7.110;2024-01-16T18:55:05;99806.88;;;-1.33;84.98
34961;BME280;30789;52.030;7.110;2024-01-16T18:57:38;99805.66;;;-1.44;85.70
34961;BME280;30789;52.030;7.110;2024-01-16T19:00:06;99797.25;;;-1.51;85.86
34961;BME280;30789;52.030;7.110;2024-01-16T19:02:41;99799.78;;;-1.46;86.35
34961;BME280;30789;52.030;7.110;2024-01-16T19:05:09;99796.94;;;-1.50;86.04
34961;BME280;30789;52.030;7.110;2024-01-16T19:07:39;99800.25;;;-1.44;85.39
34961;BME280;30789;52.030;7.110;2024-01-16T19:10:07;99802.41;;;-1.38;85.04
34961;BME280;30789;52.030;7.110;2024-01-16T19:12:40;99802.00;;;-1.48;85.48
34961;BME280;30789;52.030;7.110;2024-01-16T19:15:08;99799.31;;;-1.48;84.96
34961;BME280;30789;52.030;7.110;2024-01-16T19:17:35;99799.19;;;-1.52;85.42
34961;BME280;30789;52.030;7.110;2024-01-16T19:20:08;99793.31;;;-1.54;85.85
34961;BME280;30789;52.030;7.110;2024-01-16T19:22:39;99794.09;;;-1.53;85.61
34961;BME280;30789;52.030;7.110;2024-01-16T19:25:06;99792.38;;;-1.58;85.84
34961;BME280;30789;52.030;7.110;2024-01-16T19:27:34;99787.09;;;-1.54;85.43
34961;BME280;30789;52.030;7.110;2024-01-16T19:30:01;99785.34;;;-1.50;85.34
34961;BME280;30789;52.030;7.110;2024-01-16T19:32:31;99784.72;;;-1.56;85.25
34961;BME280;30789;52.030;7.110;2024-01-16T19:34:57;99776.94;;;-1.57;85.69
34961;BME280;30789;52.030;7.110;2024-01-16T19:37:26;99775.19;;;-1.53;85.82
34961;BME280;30789;52.030;7.110;2024-01-16T19:39:54;99770.13;;;-1.55;85.77
34961;BME280;30789;52.030;7.110;2024-01-16T19:42:21;99770.13;;;-1.55;85.35
34961;BME280;30789;52.030;7.110;2024-01-16T19:44:48;99766.66;;;-1.64;85.97
34961;BME280;30789;52.030;7.110;2024-01-16T19:47:15;99766.06;;;-1.69;86.20
34961;BME280;30789;52.030;7.110;2024-01-16T19:49:42;99764.47;;;-1.70;86.10
34961;BME280;30789;52.030;7.110;2024-01-16T19:52:09;99768.56;;;-1.64;86.02
34961;BME280;30789;52.030;7.110;2024-01-16T19:54:38;99766.31;;;-1.62;85.63
34961;BME280;30789;52.030;7.110;2024-01-16T19:57:05;99763.50;;;-1.66;85.82
34961;BME280;30789;52.030;7.110;2024-01-16T19:59:33;99756.06;;;-1.69;86.09
34961;BME280;30789;52.030;7.110;2024-01-16T20:02:00;99760.16;;;-1.63;85.45
34961;BME280;30789;52.030;7.110;2024-01-16T20:04:26;99755.09;;;-1.73;85.61
34961;BME280;30789;52.030;7.110;2024-01-16T20:07:17;99749.53;;;-1.68;85.20
34961;BME280;30789;52.030;7.110;2024-01-16T20:09:43;99740.94;;;-1.70;85.26
34961;BME280;30789;52.030;7.110;2024-01-16T20:12:11;99743.53;;;-1.73;85.49
34961;BME280;30789;52.030;7.110;2024-01-16T20:14:38;99741.59;;;-1.73;85.75
34961;BME280;30789;52.030;7.110;2024-01-16T20:17:08;99737.31;;;-1.74;85.72
34961;BME280;30789;52.030;7.110;2024-01-16T20:19:39;99733.97;;;-1.71;85.57
34961;BME280;30789;52.030;7.110;2024-01-16T20:22:06;99731.44;;;-1.76;86.02
34961;BME280;30789;52.030;7.110;2024-01-16T20:24:38;99729.22;;;-1.74;86.20
34961;BME280;30789;52.030;7.110;2024-01-16T20:27:05;99729.38;;;-1.70;85.80
34961;BME280;30789;52.030;7.110;2024-01-16T20:29:32;99723.34;;;-1.76;85.79
34961;BME280;30789;52.030;7.110;2024-01-16T20:32:01;99722.09;;;-1.79;86.00
34961;BME280;30789;52.030;7.110;2024-01-16T20:34:30;99720.66;;;-1.76;85.95
34961;BME280;30789;52.030;7.110;2024-01-16T20:36:56;99712.34;;;-1.71;85.68
34961;BME280;30789;52.030;7.110;2024-01-16T20:39:23;99712.34;;;-1.71;85.48
34961;BME280;30789;52.030;7.110;2024-01-16T20:41:53;99711.94;;;-1.82;85.96
34961;BME280;30789;52.030;7.110;2024-01-16T20:44:23;99708.75;;;-1.75;85.89
34961;BME280;30789;52.030;7.110;2024-01-16T20:46:52;99694.63;;;-1.81;85.87
34961;BME280;30789;52.030;7.110;2024-01-16T20:49:20;99693.19;;;-1.78;85.80
34961;BME280;30789;52.030;7.110;2024-01-16T20:51:47;99695.25;;;-1.75;85.35
34961;BME280;30789;52.030;7.110;2024-01-16T20:54:13;99690.34;;;-1.82;85.42
34961;BME280;30789;52.030;7.110;2024-01-16T20:56:41;99688.78;;;-1.83;85.82
34961;BME280;30789;52.030;7.110;2024-01-16T20:59:11;99694.03;;;-1.86;85.95
34961;BME280;30789;52.030;7.110;2024-01-16T21:01:38;99687.00;;;-1.79;85.75
34961;BME280;30789;52.030;7.110;2024-01-16T21:04:05;99683.50;;;-1.79;85.52
34961;BME280;30789;52.030;7.110;2024-01-16T21:06:31;99680.34;;;-1.81;85.74
34961;BME280;30789;52.030;7.110;2024-01-16T21:08:58;99676.03;;;-1.82;85.70
34961;BME280;30789;52.030;7.110;2024-01-16T21:11:25;99685.59;;;-1.85;85.93
34961;BME280;30789;52.030;7.110;2024-01-16T21:13:51;99684.03;;;-1.86;86.25
34961;BME280;30789;52.030;7.110;2024-01-16T21:16:19;99686.44;;;-1.93;86.34
34961;BME280;30789;52.030;7.110;2024-01-16T21:18:45;99685.97;;;-1.95;86.22
34961;BME280;30789;52.030;7.110;2024-01-16T21:21:14;99683.91;;;-1.98;86.55
34961;BME280;30789;52.030;7.110;2024-01-16T21:23:41;99689.84;;;-2.04;87.45
34961;BME280;30789;52.030;7.110;2024-01-16T21:26:08;99684.13;;;-2.03;87.62
34961;BME280;30789;52.030;7.110;2024-01-16T21:28:35;99682.06;;;-2.06;87.41
34961;BME280;30789;52.030;7.110;2024-01-16T21:31:02;99674.75;;;-2.05;87.80
34961;BME280;30789;52.030;7.110;2024-01-16T21:33:30;99673.16;;;-2.06;88.01
34961;BME280;30789;52.030;7.110;2024-01-16T21:35:57;99671.41;;;-2.02;87.76
34961;BME280;30789;52.030;7.110;2024-01-16T21:38:24;99676.47;;;-2.01;88.12
34961;BME280;30789;52.030;7.110;2024-01-16T21:40:51;99668.56;;;-2.06;88.05
34961;BME280;30789;52.030;7.110;2024-01-16T21:43:18;99667.50;;;-2.13;88.34
34961;BME280;30789;52.030;7.110;2024-01-16T21:45:44;99669.88;;;-2.12;88.35
34961;BME280;30789;52.030;7.110;2024-01-16T21:48:11;99655.41;;;-2.07;88.12
34961;BME280;30789;52.030;7.110;2024-01-16T21:50:40;99648.56;;;-2.05;87.95
34961;BME280;30789;52.030;7.110;2024-01-16T21:53:07;99645.25;;;-2.10;87.96
34961;BME280;30789;52.030;7.110;2024-01-16T21:55:34;99634.31;;;-2.14;88.39
34961;BME280;30789;52.030;7.110;2024-01-16T21:58:01;99635.56;;;-2.11;88.35
34961;BME280;30789;52.030;7.110;2024-01-16T22:00:28;99633.19;;;-2.13;88.54